Terminal Aerodrome Forecast
Issued by NWS

Home | Current Version | Previous Version | Text Only | Print | Product List | Glossary On
Versions: 1 2 3 4 5 6 7 8 9 10 11 12 13 14 15 16 17 18 19 20 21 22 23 24 25 26 27
412
FTUS45 KBOI 292330
TAFTWF
TAF
KTWF 292330Z 3000/3024 27008KT P6SM SKC
     FM300300 19011KT P6SM BKN150
     FM301600 24014G20KT P6SM BKN100
     FM302000 27018G25KT P6SM OVC080=

USA.gov is the U.S. government's official web portal to all federal, state and local government web resources and services.